Time;durP1;ratioP1;P1;durP2;ratioP2;P2;SDS_P1;SDS_P2;PMS_P1;PMS_P2;Temp;Humidity;BMP_temperature;BMP_pressure;BME280_temperature;BME280_humidity;BME280_pressure;Samples;Min_cycle;Max_cycle;Signal;HPM_P1;HPM_P2
2022/09/26 00:00:49;;;;;;;;;;;;;;;;;;2088630;28;19916;-88
2022/09/26 00:01:49;;;;;;;;;;;;;;;;;;2088546;28;19917;-89
2022/09/26 00:02:49;;;;;;;;;;;;;;;;;;2088543;28;20391;-89
2022/09/26 00:04:00;;;;;;;;;;;;;;;;;;2097015;28;20394;-89
2022/09/26 00:05:00;;;;;;;;;;;;;;;;;;2102846;28;20238;-89
2022/09/26 00:06:01;;;;;;;;;;;;;;;;;;2089132;28;19920;-88
2022/09/26 00:07:02;;;;;;;;;;;;;;;;;;1731525;28;10276626;-89
2022/09/26 00:08:02;;;;;;;;;;;;;;;;;;2088421;28;19913;-88
2022/09/26 00:09:03;;;;;;;;;;;;;;;;;;2088645;28;20014;-89
2022/09/26 00:10:03;;;;;;;;;;;;;;;;;;2088450;28;20525;-88
2022/09/26 00:11:06;;;;;;;;;;;;;;;;;;2088658;28;19965;-88
2022/09/26 00:12:06;;;;;;;;;;;;;;;;;;2088391;28;20386;-88
2022/09/26 00:13:06;;;;;;;;;;;;;;;;;;2088480;28;19917;-89
2022/09/26 00:14:10;;;;;;;;;;;;;;;;;;2089246;28;20011;-89
2022/09/26 00:15:10;;;;;;;;;;;;;;;;;;2089103;28;19913;-90
2022/09/26 00:16:11;;;;;;;;;;;;;;;;;;2088978;28;20383;-88
2022/09/26 00:17:11;;;;;;;;;;;;;;;;;;2089120;28;19921;-89
2022/09/26 00:18:12;;;;;;;;;;;;;;;;;;2089191;28;20407;-90
2022/09/26 00:19:12;;;;;;;;;;;;;;;;;;2089058;28;19912;-89
2022/09/26 00:20:13;;;;;;;;;;;;;;;;;;2088315;28;19963;-87
2022/09/26 00:21:13;;;;;;;;;;;;;;;;;;2088470;28;19919;-89
2022/09/26 00:22:14;;;;;;;;;;;;;;;;;;2088512;28;20343;-89
2022/09/26 00:23:14;;;;;;;;;;;;;;;;;;2080110;28;19917;-89
2022/09/26 00:24:15;;;;;;;;;;;;;;;;;;2080053;28;20392;-89
2022/09/26 00:25:15;;;;;;;;;;;;;;;;;;2088304;28;19912;-90
2022/09/26 00:26:16;;;;;;;;;;;;;;;;;;2088331;28;20026;-90
2022/09/26 00:27:18;;;;;;;;;;;;;;;;;;2096638;28;20316;-89
2022/09/26 00:28:18;;;;;;;;;;;;;;;;;;2088581;28;19913;-89
2022/09/26 00:29:18;;;;;;;;;;;;;;;;;;2088291;28;19958;-90
2022/09/26 00:30:19;;;;;;;;;;;;;;;;;;2088665;28;19952;-88
2022/09/26 00:31:26;;;;;;;;;;;;;;;;;;2088244;28;19964;-90
2022/09/26 00:32:27;;;;;;;;;;;;;;;;;;2081179;28;20379;-89
2022/09/26 00:33:27;;;;;;;;;;;;;;;;;;2080144;28;19913;-89
2022/09/26 00:34:27;;;;;;;;;;;;;;;;;;2088547;28;20794;-88
2022/09/26 00:35:29;;;;;;;;;;;;;;;;;;2088382;28;20358;-88
2022/09/26 00:36:29;;;;;;;;;;;;;;;;;;2088423;28;19939;-89
2022/09/26 00:37:30;;;;;;;;;;;;;;;;;;2088081;28;20011;-89
2022/09/26 00:38:31;;;;;;;;;;;;;;;;;;2088190;28;19970;-88
2022/09/26 00:39:31;;;;;;;;;;;;;;;;;;2088753;28;19971;-88
2022/09/26 00:40:32;;;;;;;;;;;;;;;;;;2088178;28;19913;-89
2022/09/26 00:41:33;;;;;;;;;;;;;;;;;;2087790;28;19920;-89
2022/09/26 00:42:33;;;;;;;;;;;;;;;;;;2088197;28;19947;-88
2022/09/26 00:43:35;;;;;;;;;;;;;;;;;;2088226;28;19924;-88
2022/09/26 00:44:35;;;;;;;;;;;;;;;;;;2088125;28;20356;-88
2022/09/26 00:45:36;;;;;;;;;;;;;;;;;;2096185;28;19982;-88
2022/09/26 00:46:39;;;;;;;;;;;;;;;;;;2104757;28;20126;-88
2022/09/26 00:48:00;;;;;;;;;;;;;;;;;;2096176;28;19956;-88
2022/09/26 00:49:05;;;;;;;;;;;;;;;;;;2088063;28;19917;-89
2022/09/26 00:50:15;;;;;;;;;;;;;;;;;;2080458;28;20012;-89
2022/09/26 00:51:16;;;;;;;;;;;;;;;;;;2088249;28;20409;-89
2022/09/26 00:52:21;;;;;;;;;;;;;;;;;;2088939;28;19920;-89
2022/09/26 00:53:24;;;;;;;;;;;;;;;;;;2088739;28;19912;-88
2022/09/26 00:54:26;;;;;;;;;;;;;;;;;;2088817;28;19986;-89
2022/09/26 00:55:29;;;;;;;;;;;;;;;;;;2088898;28;19997;-88
2022/09/26 00:56:32;;;;;;;;;;;;;;;;;;2088746;28;19913;-88
2022/09/26 00:57:36;;;;;;;;;;;;;;;;;;2088836;28;19928;-89
2022/09/26 00:58:43;;;;;;;;;;;;;;;;;;2087878;28;19963;-89
2022/09/26 00:59:55;;;;;;;;;;;;;;;;;;2080654;28;19913;-88
2022/09/26 01:00:55;;;;;;;;;;;;;;;;;;2088303;28;19919;-88
2022/09/26 01:01:57;;;;;;;;;;;;;;;;;;2088100;28;19920;-88
2022/09/26 01:02:57;;;;;;;;;;;;;;;;;;2079766;28;19913;-88
2022/09/26 01:03:58;;;;;;;;;;;;;;;;;;2096390;28;20334;-89
2022/09/26 01:04:59;;;;;;;;;;;;;;;;;;2104710;28;20073;-89
2022/09/26 01:05:59;;;;;;;;;;;;;;;;;;1731103;28;10246139;-89
2022/09/26 01:07:01;;;;;;;;;;;;;;;;;;2079705;28;19952;-89
2022/09/26 01:08:02;;;;;;;;;;;;;;;;;;2087958;28;19912;-89
2022/09/26 01:09:07;;;;;;;;;;;;;;;;;;2088054;28;20360;-89
2022/09/26 01:10:08;;;;;;;;;;;;;;;;;;1746382;28;10001502;-88
2022/09/26 01:11:09;;;;;;;;;;;;;;;;;;2095918;28;19936;-89
2022/09/26 01:12:09;;;;;;;;;;;;;;;;;;2091730;28;19954;-88
2022/09/26 01:13:11;;;;;;;;;;;;;;;;;;1769639;28;10451794;-89
2022/09/26 01:14:12;;;;;;;;;;;;;;;;;;2088322;28;19913;-87
2022/09/26 01:15:12;;;;;;;;;;;;;;;;;;2087966;28;19950;-89
2022/09/26 01:16:13;;;;;;;;;;;;;;;;;;2088037;28;19924;-89
2022/09/26 01:17:14;;;;;;;;;;;;;;;;;;2087905;28;19916;-89
2022/09/26 01:18:14;;;;;;;;;;;;;;;;;;2088327;28;19913;-88
2022/09/26 01:19:33;;;;;;;;;;;;;;;;;;1728882;28;10430647;-88
2022/09/26 01:20:39;;;;;;;;;;;;;;;;;;2092946;28;19936;-89
2022/09/26 01:22:07;;;;;;;;;;;;;;;;;;2083863;28;19917;-89
2022/09/26 01:23:08;;;;;;;;;;;;;;;;;;2083501;28;20000;-90
2022/09/26 01:24:27;;;;;;;;;;;;;;;;;;2088095;28;19913;-89
2022/09/26 01:25:27;;;;;;;;;;;;;;;;;;2087917;28;20319;-89
2022/09/26 01:26:34;;;;;;;;;;;;;;;;;;2079703;28;19917;-89
2022/09/26 01:27:54;;;;;;;;;;;;;;;;;;2087951;28;20454;-90
2022/09/26 01:28:54;;;;;;;;;;;;;;;;;;2088665;28;19923;-89
2022/09/26 01:30:05;;;;;;;;;;;;;;;;;;2089951;28;19912;-89
2022/09/26 01:31:10;;;;;;;;;;;;;;;;;;2092395;28;19916;-91
2022/09/26 01:33:48;;;;;;;;;;;;;;;;;;2092613;28;19912;-89
2022/09/26 01:35:07;;;;;;;;;;;;;;;;;;2087795;28;20414;-89
2022/09/26 01:36:07;;;;;;;;;;;;;;;;;;2087927;28;20323;-88
2022/09/26 01:37:18;;;;;;;;;;;;;;;;;;2079889;28;19917;-90
2022/09/26 01:38:37;;;;;;;;;;;;;;;;;;2088010;28;19935;-90
2022/09/26 01:39:54;;;;;;;;;;;;;;;;;;2087911;28;20355;-89
2022/09/26 01:40:57;;;;;;;;;;;;;;;;;;2088406;28;19920;-90
2022/09/26 01:42:07;;;;;;;;;;;;;;;;;;2089277;28;19921;-90
2022/09/26 01:43:18;;;;;;;;;;;;;;;;;;2096992;28;19948;-90
2022/09/26 01:44:27;;;;;;;;;;;;;;;;;;2097443;28;19924;-90
2022/09/26 01:45:35;;;;;;;;;;;;;;;;;;2092836;28;19951;-90
2022/09/26 01:46:54;;;;;;;;;;;;;;;;;;2080568;28;19956;-89
2022/09/26 01:48:01;;;;;;;;;;;;;;;;;;2088474;28;19920;-89
2022/09/26 01:49:01;;;;;;;;;;;;;;;;;;2087866;28;19913;-89
2022/09/26 01:50:05;;;;;;;;;;;;;;;;;;2087968;28;19920;-90
2022/09/26 01:51:11;;;;;;;;;;;;;;;;;;2088057;28;19973;-89
2022/09/26 01:52:23;;;;;;;;;;;;;;;;;;2087850;28;19931;-89
2022/09/26 01:53:26;;;;;;;;;;;;;;;;;;2088849;28;19955;-90
2022/09/26 01:54:30;;;;;;;;;;;;;;;;;;1728538;28;10160796;-89
2022/09/26 01:55:35;;;;;;;;;;;;;;;;;;2081501;28;20328;-89
2022/09/26 01:56:37;;;;;;;;;;;;;;;;;;2089759;28;19913;-89
2022/09/26 01:57:43;;;;;;;;;;;;;;;;;;2089499;28;19912;-89
2022/09/26 01:59:12;;;;;;;;;;;;;;;;;;2089640;28;19913;-89
2022/09/26 02:00:13;;;;;;;;;;;;;;;;;;1725769;28;10346518;-89
2022/09/26 02:01:15;;;;;;;;;;;;;;;;;;2114741;28;20008;-90
2022/09/26 02:02:25;;;;;;;;;;;;;;;;;;2105963;28;19965;-89
2022/09/26 02:03:29;;;;;;;;;;;;;;;;;;2097595;28;19913;-90
2022/09/26 02:04:35;;;;;;;;;;;;;;;;;;2097699;28;20389;-90
2022/09/26 02:05:43;;;;;;;;;;;;;;;;;;2098363;28;19916;-90
2022/09/26 02:06:51;;;;;;;;;;;;;;;;;;2097620;28;19971;-90
2022/09/26 02:07:54;;;;;;;;;;;;;;;;;;2090280;28;19999;-90
2022/09/26 02:09:00;;;;;;;;;;;;;;;;;;2089642;28;19994;-90
2022/09/26 02:10:03;;;;;;;;;;;;;;;;;;2090194;28;19970;-90
2022/09/26 02:11:11;;;;;;;;;;;;;;;;;;2090038;28;19912;-90
2022/09/26 02:12:32;;;;;;;;;;;;;;;;;;2045379;28;10258999;-89
2022/09/26 02:13:40;;;;;;;;;;;;;;;;;;2098403;28;19961;-90
2022/09/26 02:14:42;;;;;;;;;;;;;;;;;;1739428;28;10261725;-89
2022/09/26 02:15:45;;;;;;;;;;;;;;;;;;2114828;28;20073;-89
2022/09/26 02:16:47;;;;;;;;;;;;;;;;;;2106211;28;19943;-89
2022/09/26 02:17:51;;;;;;;;;;;;;;;;;;2107285;28;19942;-91
2022/09/26 02:18:55;;;;;;;;;;;;;;;;;;2107000;28;19912;-90
2022/09/26 02:20:01;;;;;;;;;;;;;;;;;;2107558;28;20398;-91
2022/09/26 02:21:05;;;;;;;;;;;;;;;;;;2106600;28;20065;-90
2022/09/26 02:22:05;;;;;;;;;;;;;;;;;;2098859;28;19918;-88
2022/09/26 02:23:07;;;;;;;;;;;;;;;;;;2098773;28;20350;-90
2022/09/26 02:24:08;;;;;;;;;;;;;;;;;;2098051;28;19917;-90
2022/09/26 02:25:09;;;;;;;;;;;;;;;;;;2089655;28;19920;-90
2022/09/26 02:26:09;;;;;;;;;;;;;;;;;;2106008;28;19916;-91
2022/09/26 02:27:10;;;;;;;;;;;;;;;;;;2106316;28;19919;-89
2022/09/26 02:28:10;;;;;;;;;;;;;;;;;;2089285;28;20409;-91
2022/09/26 02:29:12;;;;;;;;;;;;;;;;;;2089300;28;19963;-90
2022/09/26 02:30:12;;;;;;;;;;;;;;;;;;2098216;28;19912;-90
2022/09/26 02:31:15;;;;;;;;;;;;;;;;;;2098083;28;20438;-90
2022/09/26 02:32:17;;;;;;;;;;;;;;;;;;2098821;28;20095;-90
2022/09/26 02:33:18;;;;;;;;;;;;;;;;;;2097972;28;20034;-90
2022/09/26 02:34:18;;;;;;;;;;;;;;;;;;2098031;28;20391;-90
2022/09/26 02:36:38;;;;;;;;;;;;;;;;;;2097970;28;19912;-90
2022/09/26 02:37:38;;;;;;;;;;;;;;;;;;2098229;28;19916;-90
2022/09/26 02:38:38;;;;;;;;;;;;;;;;;;2114351;28;19915;-90
2022/09/26 02:39:39;;;;;;;;;;;;;;;;;;2114395;28;19912;-90
2022/09/26 02:40:47;;;;;;;;;;;;;;;;;;2097343;28;19966;-88
2022/09/26 02:41:49;;;;;;;;;;;;;;;;;;2097336;28;19912;-89
2022/09/26 02:42:56;;;;;;;;;;;;;;;;;;2105984;28;20020;-88
2022/09/26 02:44:14;;;;;;;;;;;;;;;;;;2105059;28;19964;-90
2022/09/26 02:45:33;;;;;;;;;;;;;;;;;;2091457;28;20001;-90
2022/09/26 02:46:52;;;;;;;;;;;;;;;;;;2091512;28;19920;-90
2022/09/26 02:48:07;;;;;;;;;;;;;;;;;;2091500;28;20446;-90
2022/09/26 02:49:15;;;;;;;;;;;;;;;;;;2097597;28;19920;-89
2022/09/26 02:50:38;;;;;;;;;;;;;;;;;;2097554;28;19916;-90
2022/09/26 02:52:06;;;;;;;;;;;;;;;;;;2092205;28;19916;-90
2022/09/26 02:53:20;;;;;;;;;;;;;;;;;;2085806;28;19913;-90
2022/09/26 02:54:42;;;;;;;;;;;;;;;;;;2104216;28;19912;-90
2022/09/26 02:55:58;;;;;;;;;;;;;;;;;;2097632;28;19939;-90
2022/09/26 02:57:21;;;;;;;;;;;;;;;;;;2090949;28;19917;-89
2022/09/26 02:58:34;;;;;;;;;;;;;;;;;;2070664;28;9999989;-89
2022/09/26 02:59:40;;;;;;;;;;;;;;;;;;2097932;28;19912;-90
2022/09/26 03:00:52;;;;;;;;;;;;;;;;;;2103039;28;19965;-95
2022/09/26 03:02:14;;;;;;;;;;;;;;;;;;2100524;28;19916;-95
2022/09/26 03:03:20;;;;;;;;;;;;;;;;;;2094967;28;19927;-95
2022/09/26 03:04:39;;;;;;;;;;;;;;;;;;2092019;28;20371;-96
2022/09/26 03:05:41;;;;;;;;;;;;;;;;;;2094069;28;19992;-95
2022/09/26 03:06:43;;;;;;;;;;;;;;;;;;2099789;28;19919;-95
2022/09/26 03:07:45;;;;;;;;;;;;;;;;;;2099388;28;20015;-96
2022/09/26 03:08:47;;;;;;;;;;;;;;;;;;2108308;28;19912;-96
2022/09/26 03:09:49;;;;;;;;;;;;;;;;;;2107215;28;20011;-96
2022/09/26 03:10:50;;;;;;;;;;;;;;;;;;2091581;28;19927;-96
2022/09/26 03:11:52;;;;;;;;;;;;;;;;;;2099059;28;19952;-95
2022/09/26 03:12:55;;;;;;;;;;;;;;;;;;1749200;28;10182604;-94
2022/09/26 03:13:56;;;;;;;;;;;;;;;;;;2107091;28;19916;-94
2022/09/26 03:14:58;;;;;;;;;;;;;;;;;;2090974;28;19913;-95
2022/09/26 03:15:58;;;;;;;;;;;;;;;;;;2103302;28;19944;-93
2022/09/26 03:16:59;;;;;;;;;;;;;;;;;;2113998;28;19978;-95
2022/09/26 03:18:01;;;;;;;;;;;;;;;;;;2116271;28;19912;-94
2022/09/26 03:19:15;;;;;;;;;;;;;;;;;;2100158;28;20409;-96
2022/09/26 03:20:19;;;;;;;;;;;;;;;;;;2092800;28;20371;-94
2022/09/26 03:21:20;;;;;;;;;;;;;;;;;;2109255;28;19912;-96
2022/09/26 03:22:21;;;;;;;;;;;;;;;;;;2113635;28;19912;-88
2022/09/26 03:23:24;;;;;;;;;;;;;;;;;;2113789;28;19911;-87
2022/09/26 03:24:25;;;;;;;;;;;;;;;;;;2113460;28;20282;-89
2022/09/26 03:25:26;;;;;;;;;;;;;;;;;;2097010;28;19930;-88
2022/09/26 03:26:28;;;;;;;;;;;;;;;;;;2088838;28;19917;-88
2022/09/26 03:27:30;;;;;;;;;;;;;;;;;;2088659;28;20268;-88
2022/09/26 03:28:30;;;;;;;;;;;;;;;;;;2088805;28;20237;-88
2022/09/26 03:29:31;;;;;;;;;;;;;;;;;;2088725;28;19919;-88
2022/09/26 03:30:32;;;;;;;;;;;;;;;;;;2088813;28;19943;-88
2022/09/26 03:31:32;;;;;;;;;;;;;;;;;;2088677;28;19912;-88
2022/09/26 03:32:32;;;;;;;;;;;;;;;;;;2100371;28;19934;-88
2022/09/26 03:33:33;;;;;;;;;;;;;;;;;;2104173;28;20015;-86
2022/09/26 03:34:33;;;;;;;;;;;;;;;;;;2099792;28;19917;-87
2022/09/26 03:35:33;;;;;;;;;;;;;;;;;;2098257;28;20317;-89
2022/09/26 03:36:33;;;;;;;;;;;;;;;;;;2096898;28;20449;-87
2022/09/26 03:37:36;;;;;;;;;;;;;;;;;;2088668;28;19917;-90
2022/09/26 03:38:36;;;;;;;;;;;;;;;;;;2089116;28;19952;-89
2022/09/26 03:39:36;;;;;;;;;;;;;;;;;;1746710;28;10207298;-88
2022/09/26 03:40:40;;;;;;;;;;;;;;;;;;2105192;28;19908;-88
2022/09/26 03:41:41;;;;;;;;;;;;;;;;;;2088678;28;20252;-88
2022/09/26 03:42:41;;;;;;;;;;;;;;;;;;2096970;28;19920;-88
2022/09/26 03:43:42;;;;;;;;;;;;;;;;;;2097624;28;19913;-89
2022/09/26 03:44:42;;;;;;;;;;;;;;;;;;2096655;28;19989;-88
2022/09/26 03:45:43;;;;;;;;;;;;;;;;;;2097008;28;20577;-86
2022/09/26 03:46:43;;;;;;;;;;;;;;;;;;2097823;28;19920;-88
2022/09/26 03:47:43;;;;;;;;;;;;;;;;;;2097941;28;19918;-87
2022/09/26 03:48:44;;;;;;;;;;;;;;;;;;2097590;28;19989;-88
2022/09/26 03:49:44;;;;;;;;;;;;;;;;;;2096866;28;19928;-88
2022/09/26 03:50:44;;;;;;;;;;;;;;;;;;2088527;28;19912;-87
2022/09/26 03:51:45;;;;;;;;;;;;;;;;;;2088437;28;20040;-88
2022/09/26 03:52:45;;;;;;;;;;;;;;;;;;2088649;28;20410;-88
2022/09/26 03:53:46;;;;;;;;;;;;;;;;;;2088651;28;19920;-88
2022/09/26 03:54:46;;;;;;;;;;;;;;;;;;2088720;28;19913;-88
2022/09/26 03:55:47;;;;;;;;;;;;;;;;;;2088829;28;20278;-88
2022/09/26 03:56:47;;;;;;;;;;;;;;;;;;2088467;28;19917;-87
2022/09/26 03:57:47;;;;;;;;;;;;;;;;;;2090584;28;19999;-88
2022/09/26 03:58:47;;;;;;;;;;;;;;;;;;2101346;28;19919;-89
2022/09/26 03:59:48;;;;;;;;;;;;;;;;;;2100749;28;20004;-88
2022/09/26 04:00:48;;;;;;;;;;;;;;;;;;2100121;28;20349;-88
2022/09/26 04:01:49;;;;;;;;;;;;;;;;;;2088895;28;20402;-90
2022/09/26 04:02:49;;;;;;;;;;;;;;;;;;2096817;28;19916;-90
2022/09/26 04:03:50;;;;;;;;;;;;;;;;;;2088683;28;19978;-90
2022/09/26 04:04:50;;;;;;;;;;;;;;;;;;2088502;28;19934;-87
2022/09/26 04:05:50;;;;;;;;;;;;;;;;;;2088675;28;19916;-88
2022/09/26 04:06:51;;;;;;;;;;;;;;;;;;2088613;28;19921;-87
2022/09/26 04:07:51;;;;;;;;;;;;;;;;;;2088665;28;19913;-89
2022/09/26 04:08:51;;;;;;;;;;;;;;;;;;2088255;28;20388;-89
2022/09/26 04:09:52;;;;;;;;;;;;;;;;;;2105086;28;19912;-89
2022/09/26 04:10:52;;;;;;;;;;;;;;;;;;2105272;28;19912;-89
2022/09/26 04:11:53;;;;;;;;;;;;;;;;;;2097002;28;19913;-89
2022/09/26 04:12:53;;;;;;;;;;;;;;;;;;2096986;28;19913;-88
2022/09/26 04:13:53;;;;;;;;;;;;;;;;;;2096837;28;19916;-89
2022/09/26 04:14:54;;;;;;;;;;;;;;;;;;2096843;28;19959;-89
2022/09/26 04:15:55;;;;;;;;;;;;;;;;;;2096532;28;20436;-89
2022/09/26 04:16:55;;;;;;;;;;;;;;;;;;2095848;28;19947;-88
2022/09/26 04:17:56;;;;;;;;;;;;;;;;;;2096964;28;19912;-89
2022/09/26 04:18:56;;;;;;;;;;;;;;;;;;2096876;28;19935;-89
2022/09/26 04:19:57;;;;;;;;;;;;;;;;;;2096566;28;19912;-89
2022/09/26 04:21:02;;;;;;;;;;;;;;;;;;2105051;28;19919;-89
2022/09/26 04:22:03;;;;;;;;;;;;;;;;;;2105210;28;19913;-88
2022/09/26 04:23:03;;;;;;;;;;;;;;;;;;2096924;28;19913;-88
2022/09/26 04:24:04;;;;;;;;;;;;;;;;;;2096957;28;20395;-90
2022/09/26 04:25:04;;;;;;;;;;;;;;;;;;2096835;28;19916;-88
2022/09/26 04:26:12;;;;;;;;;;;;;;;;;;2105045;28;19916;-88
2022/09/26 04:27:12;;;;;;;;;;;;;;;;;;2104015;28;19912;-88
2022/09/26 04:28:13;;;;;;;;;;;;;;;;;;2105283;28;19986;-89
2022/09/26 04:29:13;;;;;;;;;;;;;;;;;;2105225;28;20002;-88
2022/09/26 04:30:14;;;;;;;;;;;;;;;;;;2096829;28;20367;-89
2022/09/26 04:31:14;;;;;;;;;;;;;;;;;;2105103;28;19998;-88
2022/09/26 04:32:14;;;;;;;;;;;;;;;;;;2096494;28;20324;-88
2022/09/26 04:33:15;;;;;;;;;;;;;;;;;;2088508;28;19920;-89
2022/09/26 04:34:16;;;;;;;;;;;;;;;;;;2097031;28;19912;-90
2022/09/26 04:35:16;;;;;;;;;;;;;;;;;;2097602;28;19913;-88
2022/09/26 04:36:17;;;;;;;;;;;;;;;;;;2113449;28;20399;-89
2022/09/26 04:37:19;;;;;;;;;;;;;;;;;;1752773;28;10233271;-88
2022/09/26 04:38:20;;;;;;;;;;;;;;;;;;2096572;28;19916;-88
2022/09/26 04:39:21;;;;;;;;;;;;;;;;;;2096824;28;19916;-88
2022/09/26 04:40:21;;;;;;;;;;;;;;;;;;2097294;28;19913;-88
2022/09/26 04:41:21;;;;;;;;;;;;;;;;;;2097512;28;20015;-88
2022/09/26 04:42:24;;;;;;;;;;;;;;;;;;2096655;28;19923;-88
2022/09/26 04:43:24;;;;;;;;;;;;;;;;;;2096877;28;20364;-88
2022/09/26 04:44:24;;;;;;;;;;;;;;;;;;2097446;28;19912;-88
2022/09/26 04:45:25;;;;;;;;;;;;;;;;;;1740001;28;10216889;-89
2022/09/26 04:46:26;;;;;;;;;;;;;;;;;;2096767;28;19928;-89
2022/09/26 04:47:26;;;;;;;;;;;;;;;;;;2088455;28;19913;-88
2022/09/26 04:48:27;;;;;;;;;;;;;;;;;;2096857;28;19912;-87
2022/09/26 04:49:28;;;;;;;;;;;;;;;;;;2097428;28;19969;-87
2022/09/26 04:50:29;;;;;;;;;;;;;;;;;;2102403;28;19920;-88
2022/09/26 04:51:30;;;;;;;;;;;;;;;;;;2101286;28;19916;-87
2022/09/26 04:52:31;;;;;;;;;;;;;;;;;;2100546;28;19916;-88
2022/09/26 04:53:32;;;;;;;;;;;;;;;;;;2096903;28;19913;-86
2022/09/26 04:54:36;;;;;;;;;;;;;;;;;;2096765;28;19927;-88
2022/09/26 04:55:36;;;;;;;;;;;;;;;;;;2096282;28;19913;-88
2022/09/26 04:56:36;;;;;;;;;;;;;;;;;;2087303;28;19923;-88
2022/09/26 04:57:37;;;;;;;;;;;;;;;;;;2095913;28;20375;-87
2022/09/26 04:58:37;;;;;;;;;;;;;;;;;;2096559;28;19912;-88
2022/09/26 04:59:38;;;;;;;;;;;;;;;;;;2096619;28;19928;-88
2022/09/26 05:00:44;;;;;;;;;;;;;;;;;;2095964;28;19913;-88
2022/09/26 05:01:44;;;;;;;;;;;;;;;;;;2096107;28;20448;-88
2022/09/26 05:02:46;;;;;;;;;;;;;;;;;;2112494;28;19946;-87
2022/09/26 05:03:46;;;;;;;;;;;;;;;;;;2104155;28;19912;-88
2022/09/26 05:04:47;;;;;;;;;;;;;;;;;;1746732;28;10001302;-87
2022/09/26 05:05:48;;;;;;;;;;;;;;;;;;2112786;28;20348;-88
2022/09/26 05:06:49;;;;;;;;;;;;;;;;;;2109180;28;19912;-88
2022/09/26 05:07:49;;;;;;;;;;;;;;;;;;2096050;28;19969;-87
2022/09/26 05:08:49;;;;;;;;;;;;;;;;;;2095771;28;19970;-87
2022/09/26 05:09:51;;;;;;;;;;;;;;;;;;2095553;28;19913;-88
2022/09/26 05:10:53;;;;;;;;;;;;;;;;;;2095779;28;19973;-88
2022/09/26 05:11:54;;;;;;;;;;;;;;;;;;2095776;28;20392;-88
2022/09/26 05:12:57;;;;;;;;;;;;;;;;;;2087526;28;19979;-88
2022/09/26 05:13:59;;;;;;;;;;;;;;;;;;2087594;28;19917;-88
2022/09/26 05:15:00;;;;;;;;;;;;;;;;;;2095688;28;19913;-88
2022/09/26 05:16:01;;;;;;;;;;;;;;;;;;1746721;28;10000979;-89
2022/09/26 05:17:02;;;;;;;;;;;;;;;;;;2095566;28;19916;-89
2022/09/26 05:18:02;;;;;;;;;;;;;;;;;;2101594;28;20001;-88
2022/09/26 05:19:03;;;;;;;;;;;;;;;;;;2088423;28;19913;-89
2022/09/26 05:20:07;;;;;;;;;;;;;;;;;;2088056;28;19913;-88
2022/09/26 05:21:07;;;;;;;;;;;;;;;;;;2088145;28;20311;-88
2022/09/26 05:22:07;;;;;;;;;;;;;;;;;;2097482;28;19912;-89
2022/09/26 05:23:08;;;;;;;;;;;;;;;;;;2097492;28;19912;-90
2022/09/26 05:26:49;;;;;;;;;;;;;;;;;;2080987;28;19912;-89
2022/09/26 05:27:49;;;;;;;;;;;;;;;;;;1744778;28;10000992;-89
2022/09/26 05:28:51;;;;;;;;;;;;;;;;;;2096187;28;19936;-89
2022/09/26 05:29:54;;;;;;;;;;;;;;;;;;2073084;28;19913;-90
2022/09/26 05:30:55;;;;;;;;;;;;;;;;;;2071826;28;19983;-89
2022/09/26 05:31:56;;;;;;;;;;;;;;;;;;2071713;28;20411;-89
2022/09/26 05:32:57;;;;;;;;;;;;;;;;;;2079934;28;19920;-89
2022/09/26 05:33:57;;;;;;;;;;;;;;;;;;2083354;28;20342;-89
2022/09/26 05:34:57;;;;;;;;;;;;;;;;;;2083487;28;19913;-89
2022/09/26 05:35:57;;;;;;;;;;;;;;;;;;2085760;28;19920;-90
2022/09/26 05:36:58;;;;;;;;;;;;;;;;;;1726656;28;10245650;-87
2022/09/26 05:37:59;;;;;;;;;;;;;;;;;;2088136;28;19913;-88
2022/09/26 05:38:59;;;;;;;;;;;;;;;;;;2089225;28;20113;-89
2022/09/26 05:41:18;;;;;;;;;;;;;;;;;;2080402;28;19949;-88
2022/09/26 05:42:19;;;;;;;;;;;;;;;;;;2081206;28;19913;-89
2022/09/26 05:43:19;;;;;;;;;;;;;;;;;;2079662;28;20020;-88
2022/09/26 05:44:19;;;;;;;;;;;;;;;;;;2088520;28;20016;-89
2022/09/26 05:45:22;;;;;;;;;;;;;;;;;;2088142;28;20675;-88
2022/09/26 05:46:24;;;;;;;;;;;;;;;;;;2072312;28;19928;-88
2022/09/26 05:47:25;;;;;;;;;;;;;;;;;;2079955;28;19913;-88
2022/09/26 05:48:26;;;;;;;;;;;;;;;;;;2080573;28;19914;-88
2022/09/26 05:49:26;;;;;;;;;;;;;;;;;;2079457;28;19913;-89
2022/09/26 05:50:26;;;;;;;;;;;;;;;;;;2087800;28;20000;-88
2022/09/26 05:51:28;;;;;;;;;;;;;;;;;;2087718;28;19913;-89
2022/09/26 05:52:28;;;;;;;;;;;;;;;;;;2071445;28;20295;-89
2022/09/26 05:53:29;;;;;;;;;;;;;;;;;;2079432;28;19916;-89
2022/09/26 05:54:29;;;;;;;;;;;;;;;;;;2079503;28;20487;-89
2022/09/26 05:55:30;;;;;;;;;;;;;;;;;;2071241;28;19955;-89
2022/09/26 05:56:31;;;;;;;;;;;;;;;;;;2079460;28;19927;-89
2022/09/26 05:57:31;;;;;;;;;;;;;;;;;;2079444;28;19913;-89
2022/09/26 05:58:33;;;;;;;;;;;;;;;;;;2079545;28;19983;-89
2022/09/26 05:59:33;;;;;;;;;;;;;;;;;;2087573;28;19920;-88
2022/09/26 06:00:34;;;;;;;;;;;;;;;;;;2087752;28;19959;-89
2022/09/26 06:01:35;;;;;;;;;;;;;;;;;;2079469;28;19924;-89
2022/09/26 06:02:35;;;;;;;;;;;;;;;;;;2079653;28;20378;-89
2022/09/26 06:03:36;;;;;;;;;;;;;;;;;;2087733;28;19916;-88
2022/09/26 06:04:36;;;;;;;;;;;;;;;;;;2079394;28;20283;-88
2022/09/26 06:05:37;;;;;;;;;;;;;;;;;;2079505;28;19913;-89
2022/09/26 06:06:37;;;;;;;;;;;;;;;;;;2096050;28;20396;-89
2022/09/26 06:07:38;;;;;;;;;;;;;;;;;;2095951;28;20358;-89
2022/09/26 06:08:39;;;;;;;;;;;;;;;;;;2087781;28;20004;-88
2022/09/26 06:09:41;;;;;;;;;;;;;;;;;;2080245;28;19917;-89
2022/09/26 06:10:41;;;;;;;;;;;;;;;;;;2080215;28;20366;-89
2022/09/26 06:11:41;;;;;;;;;;;;;;;;;;2079999;28;19995;-88
2022/09/26 06:12:41;;;;;;;;;;;;;;;;;;1723676;28;10271316;-89
2022/09/26 06:13:44;;;;;;;;;;;;;;;;;;2079194;28;19967;-89
2022/09/26 06:14:45;;;;;;;;;;;;;;;;;;2079443;28;20484;-89
2022/09/26 06:15:47;;;;;;;;;;;;;;;;;;2079306;28;19917;-89
2022/09/26 06:16:48;;;;;;;;;;;;;;;;;;2087513;28;19924;-89
2022/09/26 06:17:56;;;;;;;;;;;;;;;;;;2096056;28;19919;-89
2022/09/26 06:19:03;;;;;;;;;;;;;;;;;;2080265;28;20212;-89
2022/09/26 06:20:04;;;;;;;;;;;;;;;;;;2079629;28;19913;-89
2022/09/26 06:21:05;;;;;;;;;;;;;;;;;;2079739;28;19920;-89
2022/09/26 06:22:05;;;;;;;;;;;;;;;;;;2079576;28;20380;-89
2022/09/26 06:23:06;;;;;;;;;;;;;;;;;;2079594;28;19913;-88
2022/09/26 06:24:06;;;;;;;;;;;;;;;;;;2080267;28;19932;-89
2022/09/26 06:25:42;;;;;;;;;;;;;;;;;;2080683;28;20008;-91
2022/09/26 06:26:42;;;;;;;;;;;;;;;;;;2061011;28;19918;-88
2022/09/26 06:27:42;;;;;;;;;;;;;;;;;;2064247;28;20394;-89
2022/09/26 06:28:44;;;;;;;;;;;;;;;;;;2064456;28;20495;-90
2022/09/26 06:29:44;;;;;;;;;;;;;;;;;;2080698;28;19917;-90
2022/09/26 06:30:44;;;;;;;;;;;;;;;;;;2080690;28;20438;-90
2022/09/26 06:31:45;;;;;;;;;;;;;;;;;;2080032;28;19917;-88
2022/09/26 06:32:46;;;;;;;;;;;;;;;;;;2080088;28;19913;-89
2022/09/26 06:33:52;;;;;;;;;;;;;;;;;;2080912;28;19991;-90
2022/09/26 06:34:53;;;;;;;;;;;;;;;;;;2080235;28;20003;-90
2022/09/26 06:36:00;;;;;;;;;;;;;;;;;;2079777;28;19917;-89
2022/09/26 06:37:00;;;;;;;;;;;;;;;;;;2079511;28;20399;-89
2022/09/26 06:38:04;;;;;;;;;;;;;;;;;;2080323;28;19994;-88
2022/09/26 06:39:04;;;;;;;;;;;;;;;;;;2080364;28;19935;-89
2022/09/26 06:40:08;;;;;;;;;;;;;;;;;;2080813;28;19924;-90
2022/09/26 06:41:08;;;;;;;;;;;;;;;;;;2080851;28;19924;-90
2022/09/26 06:42:09;;;;;;;;;;;;;;;;;;2080958;28;20252;-89
2022/09/26 06:43:09;;;;;;;;;;;;;;;;;;2080939;28;19921;-89
2022/09/26 06:44:09;;;;;;;;;;;;;;;;;;2080973;28;19951;-90
2022/09/26 06:45:10;;;;;;;;;;;;;;;;;;2081682;28;20343;-89
2022/09/26 06:46:11;;;;;;;;;;;;;;;;;;2089272;28;19986;-89
2022/09/26 06:47:12;;;;;;;;;;;;;;;;;;2089258;28;19923;-89
2022/09/26 06:48:12;;;;;;;;;;;;;;;;;;2080842;28;20648;-89
2022/09/26 06:49:12;;;;;;;;;;;;;;;;;;2089137;28;19917;-89
2022/09/26 06:50:13;;;;;;;;;;;;;;;;;;2089164;28;19970;-89
2022/09/26 06:51:14;;;;;;;;;;;;;;;;;;2080989;28;19973;-89
2022/09/26 06:52:14;;;;;;;;;;;;;;;;;;2081979;28;19920;-89
2022/09/26 06:53:15;;;;;;;;;;;;;;;;;;2080806;28;19913;-90
2022/09/26 06:54:15;;;;;;;;;;;;;;;;;;2081022;28;20051;-89
2022/09/26 06:55:16;;;;;;;;;;;;;;;;;;2089392;28;19966;-90
2022/09/26 06:56:17;;;;;;;;;;;;;;;;;;2080982;28;19913;-89
2022/09/26 06:57:17;;;;;;;;;;;;;;;;;;2081072;28;20016;-89
2022/09/26 06:58:27;;;;;;;;;;;;;;;;;;2067188;28;10263169;-90
2022/09/26 06:59:27;;;;;;;;;;;;;;;;;;2081706;28;20059;-90
2022/09/26 07:00:34;;;;;;;;;;;;;;;;;;2081797;28;19913;-89
2022/09/26 07:01:34;;;;;;;;;;;;;;;;;;2082410;28;19964;-89
2022/09/26 07:02:34;;;;;;;;;;;;;;;;;;2081013;28;19963;-89
2022/09/26 07:03:35;;;;;;;;;;;;;;;;;;2081016;28;19914;-89
2022/09/26 07:04:35;;;;;;;;;;;;;;;;;;2081900;28;19913;-89
2022/09/26 07:05:36;;;;;;;;;;;;;;;;;;2089559;28;19916;-88
2022/09/26 07:06:37;;;;;;;;;;;;;;;;;;2089059;28;20032;-89
2022/09/26 07:07:41;;;;;;;;;;;;;;;;;;2072818;28;20075;-89
2022/09/26 07:08:41;;;;;;;;;;;;;;;;;;2080896;28;20469;-88
2022/09/26 07:09:43;;;;;;;;;;;;;;;;;;2089102;28;19942;-89
2022/09/26 07:10:43;;;;;;;;;;;;;;;;;;2097137;28;19920;-90
2022/09/26 07:11:45;;;;;;;;;;;;;;;;;;2081318;28;19920;-89
2022/09/26 07:12:47;;;;;;;;;;;;;;;;;;2080690;28;19913;-90
2022/09/26 07:13:47;;;;;;;;;;;;;;;;;;2089134;28;20307;-90
2022/09/26 07:14:47;;;;;;;;;;;;;;;;;;2097447;28;19966;-90
2022/09/26 07:15:50;;;;;;;;;;;;;;;;;;2089037;28;19916;-90